Ordinary, Virginia
Current Conditions -  °F | °C
As of 9:54 AM on Friday 19 Dec 2014 (Local Time) from KPHF Reporting Station
Clear Clear  
Wind Chill: 36°   Ceiling: Unl
Heat Index: 42°   Visibility: 10mi
Dew Point: 26°   Wind: 10mph
Humidity: 53%   Direction: 350°N
Pressure: 30.19"   Gusts: NA
Location:  37.31°N, 76.51°W
Report Text: KPHF 191454Z 35009KT 10SM CLR 06/M03 A3019 RMK AO2 SLP222 60000 T00561033 53016
Loading
Personal Weather Stations






























Interactive Weather Map New forecast layout! Learn more

10-Day Weather Forecast

Advertisements
Track Severe Weather on mobile